Time;durP1;ratioP1;P1;durP2;ratioP2;P2;SDS_P1;SDS_P2;PMS_P1;PMS_P2;Temp;Humidity;BMP_temperature;BMP_pressure;BME280_temperature;BME280_humidity;BME280_pressure;Samples;Min_cycle;Max_cycle;Signal;HPM_P1;HPM_P2
2022/03/18 00:00:07;;;;;;;;;;;9.90;99.90;10.20;100727.00;;;;341260;28;14453;-88
2022/03/18 00:00:23;;;;;;;;;;;9.90;99.90;10.30;100721.00;;;;341328;28;12950;-88
2022/03/18 00:00:34;;;;;;;;;;;9.90;99.90;10.30;100719.00;;;;341401;28;14652;-88
2022/03/18 00:00:47;;;;;;;;;;;9.90;99.90;10.30;100724.00;;;;341407;28;12665;-87
2022/03/18 00:00:59;;;;;;;;;;;9.90;99.90;10.30;100722.00;;;;342671;28;14152;-88
2022/03/18 00:01:10;;;;;;;;;;;9.90;99.90;10.30;100718.00;;;;342477;28;11888;-87
2022/03/18 00:01:23;;;;;;;;;;;9.90;99.90;10.30;100728.00;;;;341441;28;14709;-87
2022/03/18 00:01:35;;;;;;;;;;;9.90;99.90;10.30;100738.00;;;;342719;28;12766;-87
2022/03/18 00:01:48;;;;;;;;;;;9.90;99.90;10.30;100723.00;;;;343975;28;15389;-88
2022/03/18 00:02:00;;;;;;;;;;;9.90;99.90;10.30;100723.00;;;;343694;28;12551;-88
2022/03/18 00:02:12;;;;;;;;;;;9.90;99.90;10.30;100720.00;;;;342331;28;14270;-88
2022/03/18 00:02:25;;;;;;;;;;;9.90;99.90;10.20;100733.00;;;;342577;28;12675;-88
2022/03/18 00:02:36;;;;;;;;;;;9.90;99.90;10.20;100734.00;;;;341357;28;14672;-87
2022/03/18 00:02:48;;;;;;;;;;;9.90;99.90;10.30;100725.00;;;;340151;29;12701;-88
2022/03/18 00:03:00;;;;;;;;;;;9.90;99.90;10.30;100725.00;;;;339877;29;15143;-88
2022/03/18 00:03:12;;;;;;;;;;;9.90;99.90;10.30;100725.00;;;;341448;28;10883;-88
2022/03/18 00:03:24;;;;;;;;;;;9.90;99.90;10.30;100724.00;;;;342656;28;15921;-88
2022/03/18 00:03:35;;;;;;;;;;;9.90;99.90;10.30;100723.00;;;;344068;28;13205;-88
2022/03/18 00:03:47;;;;;;;;;;;9.90;99.90;10.30;100721.00;;;;342692;28;14656;-88
2022/03/18 00:03:59;;;;;;;;;;;9.90;99.90;10.30;100728.00;;;;340175;29;12830;-88
2022/03/18 00:04:12;;;;;;;;;;;9.90;99.90;10.20;100724.00;;;;341208;28;18061;-87
2022/03/18 00:04:24;;;;;;;;;;;9.90;99.90;10.20;100727.00;;;;342645;28;12482;-87
2022/03/18 00:04:35;;;;;;;;;;;9.90;99.90;10.20;100723.00;;;;344002;28;15149;-88
2022/03/18 00:04:48;;;;;;;;;;;9.90;99.90;10.20;100724.00;;;;342738;28;13093;-87
2022/03/18 00:05:00;;;;;;;;;;;9.90;99.90;10.20;100727.00;;;;340734;28;14915;-87
2022/03/18 00:05:12;;;;;;;;;;;9.90;99.90;10.20;100722.00;;;;343400;28;10946;-88
2022/03/18 00:05:24;;;;;;;;;;;9.90;99.90;10.20;100732.00;;;;342429;28;14558;-88
2022/03/18 00:05:36;;;;;;;;;;;9.90;99.90;10.20;100730.00;;;;341061;28;13512;-87
2022/03/18 00:05:48;;;;;;;;;;;9.90;99.90;10.30;100723.00;;;;341272;28;15589;-88
2022/03/18 00:06:00;;;;;;;;;;;9.90;99.90;10.30;100726.00;;;;341906;28;14102;-88
2022/03/18 00:06:16;;;;;;;;;;;9.90;99.90;10.30;100721.00;;;;341412;28;14143;-88
2022/03/18 00:06:30;;;;;;;;;;;9.90;99.90;10.20;100726.00;;;;337986;28;83353;-88
2022/03/18 00:06:41;;;;;;;;;;;9.90;99.90;10.30;100732.00;;;;341376;28;14314;-88
2022/03/18 00:06:54;;;;;;;;;;;9.90;99.90;10.20;100733.00;;;;342724;28;12885;-87
2022/03/18 00:07:05;;;;;;;;;;;9.90;99.90;10.20;100725.00;;;;342633;28;14540;-88
2022/03/18 00:07:18;;;;;;;;;;;9.90;99.90;10.20;100730.00;;;;342652;28;10926;-87
2022/03/18 00:07:29;;;;;;;;;;;9.80;99.90;10.20;100724.00;;;;344074;28;14769;-88
2022/03/18 00:07:41;;;;;;;;;;;9.90;99.90;10.30;100734.00;;;;340074;29;12654;-88
2022/03/18 00:07:53;;;;;;;;;;;9.90;99.90;10.30;100731.00;;;;337283;29;91078;-87
2022/03/18 00:08:05;;;;;;;;;;;9.90;99.90;10.30;100732.00;;;;337446;28;83522;-88
2022/03/18 00:08:17;;;;;;;;;;;9.90;99.90;10.30;100728.00;;;;334700;29;95004;-87
2022/03/18 00:08:29;;;;;;;;;;;9.90;99.90;10.20;100731.00;;;;339330;28;83566;-87
2022/03/18 00:08:40;;;;;;;;;;;9.90;99.90;10.20;100721.00;;;;341443;28;13533;-88
2022/03/18 00:08:52;;;;;;;;;;;9.90;99.90;10.20;100718.00;;;;341424;28;10964;-87
2022/03/18 00:09:04;;;;;;;;;;;9.90;99.90;10.20;100720.00;;;;344018;28;14943;-87
2022/03/18 00:09:16;;;;;;;;;;;9.90;99.90;10.30;100727.00;;;;339813;29;13155;-87
2022/03/18 00:09:27;;;;;;;;;;;9.90;99.90;10.30;100725.00;;;;340170;29;14250;-88
2022/03/18 00:09:41;;;;;;;;;;;9.90;99.90;10.30;100733.00;;;;341312;28;11923;-88
2022/03/18 00:09:53;;;;;;;;;;;9.90;99.90;10.30;100736.00;;;;342673;28;14840;-87
2022/03/18 00:10:05;;;;;;;;;;;9.90;99.90;10.30;100729.00;;;;340057;29;12766;-88
2022/03/18 00:10:20;;;;;;;;;;;9.90;99.90;10.30;100721.00;;;;342682;28;14122;-88
2022/03/18 00:10:33;;;;;;;;;;;9.90;99.90;10.30;100723.00;;;;343742;28;12968;-88
2022/03/18 00:10:44;;;;;;;;;;;9.90;99.90;10.30;100727.00;;;;342627;28;19208;-88
2022/03/18 00:10:56;;;;;;;;;;;9.90;99.90;10.30;100718.00;;;;340845;28;21563;-88
2022/03/18 00:11:08;;;;;;;;;;;9.90;99.90;10.30;100726.00;;;;343129;28;26409;-87
2022/03/18 00:11:20;;;;;;;;;;;9.90;99.90;10.30;100728.00;;;;344042;28;12858;-88
2022/03/18 00:11:32;;;;;;;;;;;9.90;99.90;10.30;100727.00;;;;343953;28;14089;-87
2022/03/18 00:11:44;;;;;;;;;;;9.90;99.90;10.30;100725.00;;;;341289;28;12520;-88
2022/03/18 00:11:55;;;;;;;;;;;9.90;99.90;10.30;100719.00;;;;339926;29;12629;-87
2022/03/18 00:12:09;;;;;;;;;;;9.90;99.90;10.30;100723.00;;;;341379;28;12075;-87
2022/03/18 00:12:21;;;;;;;;;;;9.90;99.90;10.30;100721.00;;;;341313;28;14105;-88
2022/03/18 00:12:32;;;;;;;;;;;9.90;99.90;10.30;100723.00;;;;341122;28;17237;-88
2022/03/18 00:12:45;;;;;;;;;;;9.90;99.90;10.30;100723.00;;;;340884;28;32591;-87
2022/03/18 00:12:57;;;;;;;;;;;9.90;99.90;10.20;100720.00;;;;340852;28;21888;-87
2022/03/18 00:13:09;;;;;;;;;;;9.90;99.90;10.30;100714.00;;;;343876;28;15067;-88
2022/03/18 00:13:21;;;;;;;;;;;9.90;99.90;10.20;100723.00;;;;344087;28;12760;-88
2022/03/18 00:13:33;;;;;;;;;;;9.90;99.90;10.20;100722.00;;;;341936;28;32133;-88
2022/03/18 00:13:45;;;;;;;;;;;9.90;99.90;10.30;100719.00;;;;337554;28;81286;-87
2022/03/18 00:13:58;;;;;;;;;;;9.90;99.90;10.30;100719.00;;;;340971;28;51709;-88
2022/03/18 00:14:09;;;;;;;;;;;9.90;99.90;10.20;100724.00;;;;339376;28;12820;-88
2022/03/18 00:14:21;;;;;;;;;;;9.90;99.90;10.30;100724.00;;;;342348;28;19444;-87
2022/03/18 00:14:33;;;;;;;;;;;9.90;99.90;10.30;100716.00;;;;340060;28;13199;-87
2022/03/18 00:14:45;;;;;;;;;;;9.90;99.90;10.30;100725.00;;;;341463;28;14314;-87
2022/03/18 00:14:56;;;;;;;;;;;9.90;99.90;10.30;100721.00;;;;341388;28;10856;-88
2022/03/18 00:15:09;;;;;;;;;;;9.90;99.90;10.30;100723.00;;;;340012;28;14714;-87
2022/03/18 00:15:24;;;;;;;;;;;9.90;99.90;10.30;100715.00;;;;340227;29;10858;-87
2022/03/18 00:15:35;;;;;;;;;;;9.90;99.90;10.30;100723.00;;;;341370;28;11593;-87
2022/03/18 00:15:47;;;;;;;;;;;9.90;99.90;10.30;100721.00;;;;340058;28;11887;-87
2022/03/18 00:16:00;;;;;;;;;;;9.90;99.90;10.30;100726.00;;;;342699;28;15414;-87
2022/03/18 00:16:12;;;;;;;;;;;9.90;99.90;10.30;100720.00;;;;342715;28;12880;-87
2022/03/18 00:16:24;;;;;;;;;;;9.90;99.90;10.30;100724.00;;;;341031;28;14457;-88
2022/03/18 00:16:36;;;;;;;;;;;9.90;99.90;10.30;100719.00;;;;342647;28;12073;-88
2022/03/18 00:16:48;;;;;;;;;;;9.90;99.90;10.10;100721.00;;;;344165;28;12048;-88
2022/03/18 00:17:00;;;;;;;;;;;9.90;99.90;10.10;100717.00;;;;344951;28;12626;-87
2022/03/18 00:17:12;;;;;;;;;;;9.90;99.90;10.10;100718.00;;;;342564;28;14344;-88
2022/03/18 00:17:24;;;;;;;;;;;9.90;99.90;10.20;100725.00;;;;342668;28;12717;-88
2022/03/18 00:17:36;;;;;;;;;;;9.90;99.90;10.20;100723.00;;;;339810;29;16680;-87
2022/03/18 00:17:48;;;;;;;;;;;9.90;99.90;10.30;100720.00;;;;341145;28;18307;-88
2022/03/18 00:18:00;;;;;;;;;;;9.80;99.90;10.30;100721.00;;;;341249;28;14730;-87
2022/03/18 00:18:11;;;;;;;;;;;9.90;99.90;10.20;100721.00;;;;341448;28;12545;-87
2022/03/18 00:18:23;;;;;;;;;;;9.90;99.90;10.30;100724.00;;;;344079;28;13039;-88
2022/03/18 00:18:35;;;;;;;;;;;9.90;99.90;10.30;100726.00;;;;342706;28;12821;-88
2022/03/18 00:18:47;;;;;;;;;;;9.90;99.90;10.30;100726.00;;;;344029;28;14155;-88
2022/03/18 00:19:00;;;;;;;;;;;9.90;99.90;10.30;100719.00;;;;344053;28;12809;-87
2022/03/18 00:19:12;;;;;;;;;;;9.90;99.90;10.30;100718.00;;;;341426;28;11550;-87
2022/03/18 00:19:25;;;;;;;;;;;9.90;99.90;10.30;100718.00;;;;340079;29;12687;-87
2022/03/18 00:19:38;;;;;;;;;;;9.90;99.90;10.30;100716.00;;;;340068;29;13059;-87
2022/03/18 00:19:50;;;;;;;;;;;9.90;99.90;10.30;100715.00;;;;341137;28;10985;-87
2022/03/18 00:20:03;;;;;;;;;;;9.90;99.90;10.30;100716.00;;;;339490;29;14172;-87
2022/03/18 00:20:15;;;;;;;;;;;9.90;99.90;10.20;100722.00;;;;341208;28;12969;-87
2022/03/18 00:20:27;;;;;;;;;;;9.90;99.90;10.30;100708.00;;;;341140;28;19454;-88
2022/03/18 00:20:40;;;;;;;;;;;9.90;99.90;10.30;100715.00;;;;340619;28;33236;-87
2022/03/18 00:20:52;;;;;;;;;;;9.90;99.90;10.20;100716.00;;;;340130;29;12285;-88
2022/03/18 00:21:06;;;;;;;;;;;9.90;99.90;10.10;100723.00;;;;341216;28;11923;-88
2022/03/18 00:21:19;;;;;;;;;;;9.80;99.90;10.10;100722.00;;;;340062;28;14486;-88
2022/03/18 00:21:31;;;;;;;;;;;9.80;99.90;10.10;100721.00;;;;341229;28;15703;-87
2022/03/18 00:21:43;;;;;;;;;;;9.80;99.90;10.10;100715.00;;;;337680;29;41842;-87
2022/03/18 00:22:01;;;;;;;;;;;9.80;99.90;10.20;100726.00;;;;341319;28;14029;-88
2022/03/18 00:22:13;;;;;;;;;;;9.80;99.90;10.10;100728.00;;;;340659;28;19359;-88
2022/03/18 00:22:25;;;;;;;;;;;9.80;99.90;10.10;100718.00;;;;342652;28;13366;-88
2022/03/18 00:22:37;;;;;;;;;;;9.80;99.90;10.10;100711.00;;;;341094;28;19842;-88
2022/03/18 00:22:49;;;;;;;;;;;9.80;99.90;10.20;100720.00;;;;342537;28;17297;-88
2022/03/18 00:23:01;;;;;;;;;;;9.80;99.90;10.20;100720.00;;;;342029;28;14658;-88
2022/03/18 00:23:13;;;;;;;;;;;9.80;99.90;10.20;100713.00;;;;340840;28;20296;-87
2022/03/18 00:23:25;;;;;;;;;;;9.80;99.90;10.20;100721.00;;;;343298;28;18528;-88
2022/03/18 00:23:37;;;;;;;;;;;9.80;99.90;10.20;100721.00;;;;341116;28;16168;-87
2022/03/18 00:23:48;;;;;;;;;;;9.80;99.90;10.20;100726.00;;;;341274;28;17237;-88
2022/03/18 00:24:01;;;;;;;;;;;9.80;99.90;10.20;100727.00;;;;342385;28;17243;-87
2022/03/18 00:24:13;;;;;;;;;;;9.80;99.90;10.10;100724.00;;;;339323;29;34598;-87
2022/03/18 00:24:25;;;;;;;;;;;9.80;99.90;10.10;100718.00;;;;339831;28;18326;-88
2022/03/18 00:24:37;;;;;;;;;;;9.80;99.90;10.10;100719.00;;;;341190;28;14407;-88
2022/03/18 00:24:48;;;;;;;;;;;9.80;99.90;10.20;100727.00;;;;341365;28;12673;-88
2022/03/18 00:25:00;;;;;;;;;;;9.80;99.90;10.10;100720.00;;;;342451;28;15410;-88
2022/03/18 00:25:13;;;;;;;;;;;9.80;99.90;10.20;100720.00;;;;341134;28;17957;-88
2022/03/18 00:25:25;;;;;;;;;;;9.80;99.90;10.10;100729.00;;;;342483;28;12350;-88
2022/03/18 00:25:37;;;;;;;;;;;9.80;99.90;10.10;100715.00;;;;337877;29;24180;-87
2022/03/18 00:25:49;;;;;;;;;;;9.80;99.90;10.10;100711.00;;;;339969;29;13247;-88
2022/03/18 00:26:01;;;;;;;;;;;9.80;99.90;10.10;100724.00;;;;340795;28;20320;-88
2022/03/18 00:26:13;;;;;;;;;;;9.70;99.90;10.10;100715.00;;;;340118;28;42890;-88
2022/03/18 00:26:26;;;;;;;;;;;9.80;99.90;10.10;100714.00;;;;338946;28;80989;-88
2022/03/18 00:26:38;;;;;;;;;;;9.80;99.90;10.10;100719.00;;;;338687;29;15406;-88
2022/03/18 00:26:50;;;;;;;;;;;9.80;99.90;10.20;100712.00;;;;339850;29;18696;-88
2022/03/18 00:27:03;;;;;;;;;;;9.80;99.90;10.10;100723.00;;;;338662;29;11764;-88
2022/03/18 00:27:15;;;;;;;;;;;9.80;99.90;10.10;100716.00;;;;337385;29;12828;-87
2022/03/18 00:27:27;;;;;;;;;;;9.80;99.90;10.10;100718.00;;;;342691;28;18014;-87
2022/03/18 00:27:39;;;;;;;;;;;9.70;99.90;10.10;100714.00;;;;342110;28;25760;-87
2022/03/18 00:27:51;;;;;;;;;;;9.70;99.90;10.10;100721.00;;;;339229;29;31629;-88
2022/03/18 00:28:03;;;;;;;;;;;9.80;99.90;10.10;100715.00;;;;340143;28;11509;-87
2022/03/18 00:28:15;;;;;;;;;;;9.70;99.90;10.20;100710.00;;;;339732;29;18107;-88
2022/03/18 00:28:27;;;;;;;;;;;9.70;99.90;10.10;100717.00;;;;339928;28;46305;-88
2022/03/18 00:28:39;;;;;;;;;;;9.80;99.90;10.10;100706.00;;;;337686;29;84930;-88
2022/03/18 00:28:51;;;;;;;;;;;9.70;99.90;10.20;100725.00;;;;340097;29;11001;-87
2022/03/18 00:29:03;;;;;;;;;;;9.70;99.90;10.10;100709.00;;;;339767;29;14511;-87
2022/03/18 00:29:15;;;;;;;;;;;9.80;99.90;10.10;100714.00;;;;340189;28;12508;-87
2022/03/18 00:29:26;;;;;;;;;;;9.70;99.90;10.10;100714.00;;;;339950;29;15068;-88
2022/03/18 00:29:38;;;;;;;;;;;9.80;99.90;10.10;100720.00;;;;341226;28;12614;-88
2022/03/18 00:29:50;;;;;;;;;;;9.70;99.90;10.20;100717.00;;;;340118;29;12082;-88
2022/03/18 00:30:03;;;;;;;;;;;9.80;99.90;10.20;100717.00;;;;338702;29;14024;-88
2022/03/18 00:30:16;;;;;;;;;;;9.70;99.90;10.20;100717.00;;;;340043;29;11709;-87
2022/03/18 00:30:28;;;;;;;;;;;9.80;99.90;10.20;100718.00;;;;338313;29;14594;-88
2022/03/18 00:30:40;;;;;;;;;;;9.70;99.90;10.10;100718.00;;;;338029;29;67782;-88
2022/03/18 00:30:51;;;;;;;;;;;9.80;99.90;10.20;100718.00;;;;340094;29;12943;-88
2022/03/18 00:31:03;;;;;;;;;;;9.80;99.90;10.20;100719.00;;;;340036;29;12020;-87
2022/03/18 00:31:15;;;;;;;;;;;9.80;99.90;10.20;100720.00;;;;341298;28;16572;-88
2022/03/18 00:31:29;;;;;;;;;;;9.80;99.90;10.20;100720.00;;;;337455;29;14767;-87
2022/03/18 00:31:41;;;;;;;;;;;9.80;99.90;10.20;100713.00;;;;342679;28;11902;-87
2022/03/18 00:31:53;;;;;;;;;;;9.80;99.90;10.20;100712.00;;;;341260;28;16853;-88
2022/03/18 00:32:05;;;;;;;;;;;9.80;99.90;10.20;100716.00;;;;339475;29;12962;-87
2022/03/18 00:32:18;;;;;;;;;;;9.80;99.90;10.20;100712.00;;;;340085;29;12073;-88
2022/03/18 00:32:30;;;;;;;;;;;9.80;99.90;10.20;100712.00;;;;341788;28;27823;-88
2022/03/18 00:32:42;;;;;;;;;;;9.80;99.90;10.10;100710.00;;;;341247;28;14821;-88
2022/03/18 00:33:14;;;;;;;;;;;9.80;99.90;10.10;100715.00;;;;342556;28;11492;-88
2022/03/18 00:33:27;;;;;;;;;;;9.70;99.90;10.10;100718.00;;;;337686;29;31850;-88
2022/03/18 00:33:38;;;;;;;;;;;9.70;99.90;10.10;100719.00;;;;338327;29;20412;-88
2022/03/18 00:33:50;;;;;;;;;;;9.80;99.90;10.10;100720.00;;;;338256;29;63090;-88
2022/03/18 00:34:02;;;;;;;;;;;9.70;99.90;10.10;100710.00;;;;338406;29;22471;-88
2022/03/18 00:34:14;;;;;;;;;;;9.70;99.90;10.10;100708.00;;;;339689;29;20155;-88
2022/03/18 00:34:26;;;;;;;;;;;9.70;99.90;10.10;100717.00;;;;341745;28;37356;-87
2022/03/18 00:34:37;;;;;;;;;;;9.70;99.90;10.10;100705.00;;;;335990;28;96504;-88
2022/03/18 00:34:50;;;;;;;;;;;9.70;99.90;10.10;100711.00;;;;337813;29;35495;-88
2022/03/18 00:35:01;;;;;;;;;;;9.70;99.90;10.10;100708.00;;;;339374;28;37757;-87
2022/03/18 00:35:13;;;;;;;;;;;9.70;99.90;10.10;100713.00;;;;338952;29;16050;-88
2022/03/18 00:35:25;;;;;;;;;;;9.70;99.90;10.20;100708.00;;;;340962;28;12206;-88
2022/03/18 00:35:37;;;;;;;;;;;9.70;99.90;10.20;100715.00;;;;338780;29;37629;-88
2022/03/18 00:35:48;;;;;;;;;;;9.70;99.90;10.10;100708.00;;;;339935;29;14839;-88
2022/03/18 00:36:01;;;;;;;;;;;9.70;99.90;10.10;100712.00;;;;339623;28;60172;-88
2022/03/18 00:36:12;;;;;;;;;;;9.70;99.90;10.10;100706.00;;;;342304;28;26536;-88
2022/03/18 00:36:24;;;;;;;;;;;9.80;99.90;10.10;100708.00;;;;340380;28;35752;-88
2022/03/18 00:36:37;;;;;;;;;;;9.70;99.90;10.10;100714.00;;;;339925;28;46543;-87
2022/03/18 00:36:48;;;;;;;;;;;9.70;99.90;10.10;100709.00;;;;342701;28;13175;-88
2022/03/18 00:37:00;;;;;;;;;;;9.70;99.90;10.10;100714.00;;;;341217;28;13366;-87
2022/03/18 00:37:12;;;;;;;;;;;9.70;99.90;10.10;100702.00;;;;342807;28;45644;-88
2022/03/18 00:37:24;;;;;;;;;;;9.80;99.90;10.00;100706.00;;;;343583;28;21903;-87
2022/03/18 00:37:36;;;;;;;;;;;9.70;99.90;10.00;100717.00;;;;341444;28;10892;-87
2022/03/18 00:37:48;;;;;;;;;;;9.70;99.90;10.00;100706.00;;;;342704;28;12115;-88
2022/03/18 00:38:02;;;;;;;;;;;9.70;99.90;10.00;100702.00;;;;342243;28;11040;-87
2022/03/18 00:38:14;;;;;;;;;;;9.70;99.90;10.00;100706.00;;;;338631;29;14221;-88
2022/03/18 00:38:27;;;;;;;;;;;9.70;99.90;10.00;100705.00;;;;340718;28;18534;-88
2022/03/18 00:38:39;;;;;;;;;;;9.70;99.90;10.10;100715.00;;;;341224;28;16386;-87
2022/03/18 00:38:51;;;;;;;;;;;9.70;99.90;10.10;100703.00;;;;336876;28;83410;-88
2022/03/18 00:39:03;;;;;;;;;;;9.70;99.90;10.10;100709.00;;;;337792;28;81975;-87
2022/03/18 00:39:18;;;;;;;;;;;9.70;99.90;10.00;100707.00;;;;335502;29;82408;-87
2022/03/18 00:39:30;;;;;;;;;;;9.70;99.90;10.00;100708.00;;;;335371;29;72995;-87
2022/03/18 00:39:41;;;;;;;;;;;9.70;99.90;10.00;100709.00;;;;338559;29;16033;-87
2022/03/18 00:39:53;;;;;;;;;;;9.70;99.90;10.00;100716.00;;;;338672;29;14663;-88
2022/03/18 00:40:06;;;;;;;;;;;9.70;99.90;10.00;100707.00;;;;337843;29;67027;-87
2022/03/18 00:40:18;;;;;;;;;;;9.70;99.90;10.10;100714.00;;;;340794;28;28254;-87
2022/03/18 00:40:30;;;;;;;;;;;9.70;99.90;10.00;100710.00;;;;340564;28;30068;-88
2022/03/18 00:40:44;;;;;;;;;;;9.70;99.90;10.10;100699.00;;;;335999;29;88310;-87
2022/03/18 00:40:56;;;;;;;;;;;9.70;99.90;10.10;100713.00;;;;339553;28;31294;-88
2022/03/18 00:41:08;;;;;;;;;;;9.70;99.90;10.00;100705.00;;;;340814;28;14400;-88
2022/03/18 00:41:20;;;;;;;;;;;9.70;99.90;10.10;100706.00;;;;341121;28;13724;-87
2022/03/18 00:41:33;;;;;;;;;;;9.70;99.90;10.10;100698.00;;;;342173;28;20288;-88
2022/03/18 00:41:44;;;;;;;;;;;9.70;99.90;10.10;100708.00;;;;340811;28;22764;-88
2022/03/18 00:41:56;;;;;;;;;;;9.70;99.90;10.10;100708.00;;;;339867;28;20723;-87
2022/03/18 00:42:09;;;;;;;;;;;9.70;99.90;10.10;100703.00;;;;342644;28;13399;-88
2022/03/18 00:42:21;;;;;;;;;;;9.70;99.90;10.10;100706.00;;;;342518;28;15765;-88
2022/03/18 00:42:33;;;;;;;;;;;9.70;99.90;10.10;100712.00;;;;339391;29;29935;-87
2022/03/18 00:42:46;;;;;;;;;;;9.70;99.90;10.10;100691.00;;;;339942;29;14479;-88
2022/03/18 00:42:58;;;;;;;;;;;9.70;99.90;10.10;100703.00;;;;339157;29;28525;-88
2022/03/18 00:43:09;;;;;;;;;;;9.70;99.90;10.10;100704.00;;;;341828;28;26837;-88
2022/03/18 00:43:22;;;;;;;;;;;9.70;99.90;10.10;100706.00;;;;340877;28;28118;-87
2022/03/18 00:43:34;;;;;;;;;;;9.70;99.90;10.10;100706.00;;;;340797;28;22735;-88
2022/03/18 00:43:46;;;;;;;;;;;9.70;99.90;10.10;100700.00;;;;340729;28;24098;-88
2022/03/18 00:43:57;;;;;;;;;;;9.70;99.90;10.10;100700.00;;;;338821;29;36118;-88
2022/03/18 00:44:09;;;;;;;;;;;9.70;99.90;10.10;100697.00;;;;340203;28;15215;-88
2022/03/18 00:44:25;;;;;;;;;;;9.70;99.90;10.10;100693.00;;;;342601;28;11778;-88
2022/03/18 00:44:37;;;;;;;;;;;9.70;99.90;10.10;100708.00;;;;336221;29;83458;-88
2022/03/18 00:44:48;;;;;;;;;;;9.70;99.90;10.10;100699.00;;;;335876;28;96513;-88
2022/03/18 00:45:00;;;;;;;;;;;9.70;99.90;10.10;100705.00;;;;334866;29;83503;-87
2022/03/18 00:45:13;;;;;;;;;;;9.70;99.90;10.20;100694.00;;;;334516;29;95917;-87
2022/03/18 00:45:25;;;;;;;;;;;9.70;99.90;10.10;100697.00;;;;337974;28;82503;-87
2022/03/18 00:45:37;;;;;;;;;;;9.70;99.90;10.20;100706.00;;;;334447;29;97194;-87
2022/03/18 00:45:49;;;;;;;;;;;9.70;99.90;10.20;100704.00;;;;335357;29;82409;-87
2022/03/18 00:46:01;;;;;;;;;;;9.70;99.90;10.20;100706.00;;;;335836;28;95419;-88
2022/03/18 00:46:12;;;;;;;;;;;9.70;99.90;10.20;100706.00;;;;335344;29;83399;-88
2022/03/18 00:46:25;;;;;;;;;;;9.70;99.90;10.10;100706.00;;;;334348;29;97191;-88
2022/03/18 00:46:36;;;;;;;;;;;9.80;99.90;10.10;100704.00;;;;336605;28;83466;-88
2022/03/18 00:46:48;;;;;;;;;;;9.70;99.90;10.10;100694.00;;;;337187;28;95454;-88
2022/03/18 00:47:00;;;;;;;;;;;9.70;99.90;10.20;100708.00;;;;333362;29;83493;-87
2022/03/18 00:52:05;;;;;;;;;;;9.80;99.90;10.10;100700.00;;;;336073;29;81013;-87
2022/03/18 00:52:16;;;;;;;;;;;9.70;99.90;10.10;100704.00;;;;338456;29;17661;-87
2022/03/18 00:52:28;;;;;;;;;;;9.80;99.90;10.10;100706.00;;;;338674;29;46229;-87
2022/03/18 00:52:40;;;;;;;;;;;9.70;99.90;10.10;100699.00;;;;339945;29;15411;-88
2022/03/18 00:52:52;;;;;;;;;;;9.70;99.90;10.20;100717.00;;;;338650;29;10850;-87
2022/03/18 00:53:04;;;;;;;;;;;9.70;99.90;10.10;100711.00;;;;339568;29;15423;-87
2022/03/18 00:53:15;;;;;;;;;;;9.70;99.90;10.10;100697.00;;;;339932;29;12191;-88
2022/03/18 00:53:27;;;;;;;;;;;9.70;99.90;10.10;100702.00;;;;339976;29;14397;-88
2022/03/18 00:53:39;;;;;;;;;;;9.70;99.90;10.10;100699.00;;;;339583;28;40313;-88
2022/03/18 00:53:51;;;;;;;;;;;9.70;99.90;10.10;100697.00;;;;341412;28;34747;-88
2022/03/18 00:54:03;;;;;;;;;;;9.80;99.90;10.20;100703.00;;;;339192;28;75687;-88
2022/03/18 00:54:15;;;;;;;;;;;9.70;99.90;10.20;100713.00;;;;338783;28;80912;-88
2022/03/18 00:54:27;;;;;;;;;;;9.80;99.90;10.20;100700.00;;;;341182;28;13389;-87
2022/03/18 00:54:39;;;;;;;;;;;9.80;99.90;10.20;100696.00;;;;341005;28;21072;-88
2022/03/18 00:54:51;;;;;;;;;;;9.80;99.90;10.10;100706.00;;;;341235;28;16871;-88
2022/03/18 00:55:03;;;;;;;;;;;9.80;99.90;10.10;100696.00;;;;338741;28;91272;-88
2022/03/18 00:55:15;;;;;;;;;;;9.80;99.90;10.20;100698.00;;;;335327;29;82553;-88
2022/03/18 00:55:27;;;;;;;;;;;9.80;99.90;10.20;100702.00;;;;335791;28;97485;-87
2022/03/18 00:55:38;;;;;;;;;;;9.80;99.90;10.20;100706.00;;;;342003;28;26602;-88
2022/03/18 00:55:50;;;;;;;;;;;9.80;99.90;10.20;100708.00;;;;338475;28;96943;-88
2022/03/18 00:56:02;;;;;;;;;;;9.80;99.90;10.20;100702.00;;;;338972;29;17108;-88
2022/03/18 00:56:14;;;;;;;;;;;9.80;99.90;10.20;100697.00;;;;339660;29;21455;-87
2022/03/18 00:56:26;;;;;;;;;;;9.80;99.90;10.20;100706.00;;;;338124;29;60563;-88
2022/03/18 00:56:38;;;;;;;;;;;9.80;99.90;10.20;100701.00;;;;341741;28;35660;-88
2022/03/18 00:56:49;;;;;;;;;;;9.80;99.90;10.20;100703.00;;;;343297;28;31633;-88
2022/03/18 00:57:02;;;;;;;;;;;9.80;99.90;10.10;100700.00;;;;340342;28;33741;-88
2022/03/18 00:57:14;;;;;;;;;;;9.80;99.90;10.10;100698.00;;;;339926;29;17211;-87
2022/03/18 00:57:25;;;;;;;;;;;9.80;99.90;10.20;100699.00;;;;341348;28;14214;-88
2022/03/18 00:57:37;;;;;;;;;;;9.80;99.90;10.20;100705.00;;;;342684;28;10894;-88
2022/03/18 00:57:49;;;;;;;;;;;9.80;99.90;10.20;100696.00;;;;341271;28;17276;-87
2022/03/18 00:58:01;;;;;;;;;;;9.80;99.90;10.20;100699.00;;;;339180;29;35677;-88
2022/03/18 00:58:12;;;;;;;;;;;9.80;99.90;10.20;100702.00;;;;344101;28;13354;-88
2022/03/18 00:58:24;;;;;;;;;;;9.80;99.90;10.20;100706.00;;;;342694;28;11870;-88
2022/03/18 00:58:36;;;;;;;;;;;9.80;99.90;10.20;100700.00;;;;342691;28;11588;-87
2022/03/18 00:58:48;;;;;;;;;;;9.80;99.90;10.20;100702.00;;;;341380;28;12625;-87
2022/03/18 00:58:59;;;;;;;;;;;9.80;99.90;10.20;100704.00;;;;341252;28;16141;-88
2022/03/18 00:59:11;;;;;;;;;;;9.80;99.90;10.20;100705.00;;;;340783;29;13346;-87
2022/03/18 00:59:23;;;;;;;;;;;9.80;99.90;10.10;100693.00;;;;342629;28;33096;-87
2022/03/18 00:59:35;;;;;;;;;;;9.80;99.90;10.10;100698.00;;;;340462;28;60611;-87
2022/03/18 00:59:47;;;;;;;;;;;9.80;99.90;10.10;100693.00;;;;340550;29;18944;-88
2022/03/18 01:00:14;;;;;;;;;;;9.80;99.90;10.10;100699.00;;;;342657;28;11099;-87
2022/03/18 01:00:26;;;;;;;;;;;9.70;99.90;10.10;100697.00;;;;342025;28;16722;-87
2022/03/18 01:00:38;;;;;;;;;;;9.80;99.90;10.10;100698.00;;;;340569;29;15763;-88
2022/03/18 01:00:50;;;;;;;;;;;9.80;99.90;10.10;100687.00;;;;339237;29;12131;-87
2022/03/18 01:01:02;;;;;;;;;;;9.80;99.90;10.00;100699.00;;;;341381;28;11533;-88
2022/03/18 01:01:14;;;;;;;;;;;9.70;99.90;10.00;100691.00;;;;340066;29;14466;-87
2022/03/18 01:01:26;;;;;;;;;;;9.70;99.90;10.00;100704.00;;;;341351;28;12975;-87
2022/03/18 01:01:39;;;;;;;;;;;9.70;99.90;10.00;100696.00;;;;339897;29;14231;-88
2022/03/18 01:01:52;;;;;;;;;;;9.70;99.90;10.10;100693.00;;;;341053;28;14016;-87
2022/03/18 01:02:04;;;;;;;;;;;9.70;99.90;10.10;100696.00;;;;339314;29;16477;-88
2022/03/18 01:02:16;;;;;;;;;;;9.70;99.90;10.10;100692.00;;;;339919;29;12678;-88
2022/03/18 01:02:28;;;;;;;;;;;9.70;99.90;10.10;100694.00;;;;339985;29;15796;-88
2022/03/18 01:02:40;;;;;;;;;;;9.70;99.90;10.10;100700.00;;;;342616;28;13260;-88
2022/03/18 01:02:52;;;;;;;;;;;9.70;99.90;10.10;100702.00;;;;340062;29;12143;-88
2022/03/18 01:03:06;;;;;;;;;;;9.70;99.90;10.20;100703.00;;;;341295;28;12198;-87
2022/03/18 01:03:18;;;;;;;;;;;9.70;99.90;10.10;100696.00;;;;334516;29;97156;-87
2022/03/18 01:03:30;;;;;;;;;;;9.70;99.90;10.00;100692.00;;;;336216;29;82104;-88
2022/03/18 01:03:42;;;;;;;;;;;9.70;99.90;10.10;100698.00;;;;341304;28;15088;-88
2022/03/18 01:03:53;;;;;;;;;;;9.70;99.90;10.10;100692.00;;;;339990;28;11007;-87
2022/03/18 01:04:05;;;;;;;;;;;9.70;99.90;10.10;100691.00;;;;339441;29;32594;-88
2022/03/18 01:04:17;;;;;;;;;;;9.70;99.90;10.00;100696.00;;;;340967;28;20733;-88
2022/03/18 01:04:29;;;;;;;;;;;9.70;99.90;10.10;100691.00;;;;341053;28;23309;-87
2022/03/18 01:04:40;;;;;;;;;;;9.70;99.90;10.10;100701.00;;;;340833;28;51628;-88
2022/03/18 01:04:52;;;;;;;;;;;9.70;99.90;10.10;100703.00;;;;333054;29;94774;-88
2022/03/18 01:05:04;;;;;;;;;;;9.70;99.90;10.10;100688.00;;;;338962;28;73323;-88
2022/03/18 01:05:17;;;;;;;;;;;9.70;99.90;10.10;100695.00;;;;339718;28;97110;-88
2022/03/18 01:05:28;;;;;;;;;;;9.70;99.90;10.10;100696.00;;;;342490;28;13933;-88